Time;durP1;ratioP1;P1;durP2;ratioP2;P2;SDS_P1;SDS_P2;PMS_P1;PMS_P2;Temp;Humidity;BMP_temperature;BMP_pressure;BME280_temperature;BME280_humidity;BME280_pressure;Samples;Min_cycle;Max_cycle;Signal;HPM_P1;HPM_P2
2023/12/09 00:00:21;;;;;;;23.52;6.30;;;8.20;99.90;;;;;;5033011;28;20112;-47
2023/12/09 00:02:46;;;;;;;22.27;5.10;;;8.20;99.90;;;;;;5032965;28;20103;-53
2023/12/09 00:05:12;;;;;;;27.88;6.72;;;8.20;99.90;;;;;;5032791;28;20029;-52
2023/12/09 00:07:38;;;;;;;23.08;5.25;;;8.20;99.90;;;;;;5032955;28;20034;-53
2023/12/09 00:10:04;;;;;;;24.55;4.95;;;8.20;99.90;;;;;;5032927;28;20152;-45
2023/12/09 00:12:30;;;;;;;24.73;6.10;;;8.20;99.90;;;;;;5033119;28;20108;-46
2023/12/09 00:14:55;;;;;;;28.67;5.57;;;8.20;99.90;;;;;;5032962;28;20498;-47
2023/12/09 00:17:21;;;;;;;32.35;5.45;;;8.20;99.90;;;;;;5032618;28;20107;-51
2023/12/09 00:19:47;;;;;;;28.70;4.60;;;8.20;99.90;;;;;;5032881;28;20026;-49
2023/12/09 00:22:12;;;;;;;20.02;4.85;;;8.20;99.90;;;;;;5032632;28;20029;-52
2023/12/09 00:24:38;;;;;;;27.20;4.45;;;8.20;99.90;;;;;;5032803;28;20029;-45
2023/12/09 00:27:04;;;;;;;33.17;6.70;;;8.20;99.90;;;;;;5032628;28;20022;-47
2023/12/09 00:29:29;;;;;;;23.77;4.80;;;8.20;99.90;;;;;;5032691;28;20033;-48
2023/12/09 00:31:55;;;;;;;21.27;4.22;;;8.20;99.90;;;;;;5032561;28;20064;-51
2023/12/09 00:34:20;;;;;;;22.67;5.32;;;8.20;99.90;;;;;;5032666;28;20466;-47
2023/12/09 00:36:46;;;;;;;38.95;5.65;;;8.20;99.90;;;;;;5032504;28;20021;-48
2023/12/09 00:39:12;;;;;;;16.98;4.70;;;8.20;99.90;;;;;;5032410;28;20071;-50
2023/12/09 00:41:37;;;;;;;22.50;5.65;;;8.30;99.90;;;;;;5035290;28;20017;-47
2023/12/09 00:44:03;;;;;;;39.80;6.18;;;8.20;99.90;;;;;;5036953;28;20108;-49
2023/12/09 00:46:29;;;;;;;25.05;5.22;;;8.30;99.90;;;;;;5036944;28;20037;-49
2023/12/09 00:48:54;;;;;;;21.33;4.75;;;8.30;99.90;;;;;;5030634;28;20037;-52
2023/12/09 00:51:20;;;;;;;35.30;5.47;;;8.30;99.90;;;;;;5036070;28;20022;-48
2023/12/09 00:53:46;;;;;;;24.00;5.03;;;8.30;99.90;;;;;;5033345;28;20022;-48
2023/12/09 00:56:11;;;;;;;22.90;5.63;;;8.30;99.90;;;;;;5035981;28;20122;-47
2023/12/09 00:58:37;;;;;;;30.23;6.30;;;8.20;99.90;;;;;;5036419;28;20084;-49
2023/12/09 01:01:03;;;;;;;22.00;5.38;;;8.20;99.90;;;;;;5036192;28;20021;-42
2023/12/09 01:03:28;;;;;;;17.23;4.55;;;8.20;99.90;;;;;;5036227;28;20395;-51
2023/12/09 01:05:54;;;;;;;25.60;4.80;;;8.30;99.90;;;;;;5036101;28;20041;-46
2023/12/09 01:08:19;;;;;;;11.27;3.75;;;8.30;99.90;;;;;;5036341;28;20399;-49
2023/12/09 01:10:45;;;;;;;23.33;4.65;;;8.20;99.90;;;;;;5036112;28;20029;-47
2023/12/09 01:13:11;;;;;;;20.83;4.38;;;8.20;99.90;;;;;;5035777;28;20029;-49
2023/12/09 01:15:37;;;;;;;24.58;6.00;;;8.20;99.90;;;;;;5036135;28;20060;-47
2023/12/09 01:18:02;;;;;;;40.13;5.97;;;8.20;99.90;;;;;;5035761;28;20517;-46
2023/12/09 01:20:28;;;;;;;17.85;4.93;;;8.10;99.90;;;;;;5036013;28;20036;-51
2023/12/09 01:22:54;;;;;;;18.05;5.53;;;8.10;99.90;;;;;;5035921;28;20033;-49
2023/12/09 01:25:19;;;;;;;20.42;4.32;;;8.00;99.90;;;;;;5035865;28;20491;-47
2023/12/09 01:27:45;;;;;;;21.48;5.70;;;8.00;99.90;;;;;;5035811;28;20021;-48
2023/12/09 01:30:11;;;;;;;22.58;4.65;;;8.00;99.90;;;;;;5035923;28;20035;-45
2023/12/09 01:32:37;;;;;;;18.67;4.80;;;8.10;99.90;;;;;;5015989;28;20148;-48
2023/12/09 01:35:03;;;;;;;28.92;5.15;;;8.10;99.90;;;;;;5016264;28;20113;-48
2023/12/09 01:37:29;;;;;;;28.35;4.70;;;8.10;99.90;;;;;;5016078;28;20561;-48
2023/12/09 01:39:55;;;;;;;25.58;4.88;;;8.10;99.90;;;;;;5026303;28;20057;-47
2023/12/09 01:42:20;;;;;;;25.75;5.35;;;8.00;99.90;;;;;;5035626;28;20053;-48
2023/12/09 01:44:46;;;;;;;23.63;3.67;;;8.00;99.90;;;;;;5028989;28;20034;-48
2023/12/09 01:47:12;;;;;;;12.80;4.32;;;8.00;99.90;;;;;;5020764;28;20398;-51
2023/12/09 01:49:38;;;;;;;28.80;5.30;;;7.90;99.90;;;;;;5035501;28;20033;-48
2023/12/09 01:52:05;;;;;;;22.42;4.15;;;7.90;99.90;;;;;;5032368;28;20483;-43
2023/12/09 01:54:31;;;;;;;14.02;3.90;;;7.90;99.90;;;;;;5034494;28;20483;-43
2023/12/09 01:56:57;;;;;;;21.77;3.70;;;7.90;99.90;;;;;;5034659;28;20028;-46
2023/12/09 01:59:23;;;;;;;20.55;4.65;;;7.90;99.90;;;;;;5034021;28;20557;-48
2023/12/09 02:01:51;;;;;;;14.63;4.18;;;7.90;99.90;;;;;;5033455;28;20449;-50
2023/12/09 02:04:18;;;;;;;10.40;3.63;;;7.80;99.90;;;;;;5034324;28;20100;-51
2023/12/09 02:06:44;;;;;;;23.48;4.22;;;7.80;99.90;;;;;;5033165;28;20383;-46
2023/12/09 02:09:10;;;;;;;35.95;6.72;;;7.70;99.90;;;;;;5034997;28;20025;-47
2023/12/09 02:11:54;;;;;;;29.33;4.45;;;7.80;99.90;;;;;;5035020;28;20391;-48
2023/12/09 02:14:40;;;;;;;12.45;3.85;;;7.70;99.90;;;;;;5034885;28;20116;-53
2023/12/09 02:17:33;;;;;;;25.13;3.78;;;7.70;99.90;;;;;;5034644;28;20152;-46
2023/12/09 02:20:00;;;;;;;19.63;3.20;;;7.60;99.90;;;;;;5034837;28;20018;-47
2023/12/09 02:22:26;;;;;;;31.23;5.30;;;7.70;99.90;;;;;;5034699;28;20025;-48
2023/12/09 02:24:51;;;;;;;17.27;3.55;;;7.60;99.90;;;;;;5033577;28;20429;-51
2023/12/09 02:27:45;;;;;;;23.35;4.43;;;7.60;99.90;;;;;;5034786;28;20068;-50
2023/12/09 02:30:44;;;;;;;17.85;3.42;;;7.60;99.90;;;;;;5029729;28;20067;-48
2023/12/09 02:33:11;;;;;;;34.00;4.97;;;7.60;99.90;;;;;;5031358;28;20069;-48
2023/12/09 02:35:42;;;;;;;11.98;3.78;;;7.60;99.90;;;;;;5034591;28;20457;-47
2023/12/09 02:38:09;;;;;;;23.85;3.78;;;7.50;99.90;;;;;;5034379;28;20514;-47
2023/12/09 02:40:36;;;;;;;20.05;4.22;;;7.50;99.90;;;;;;5033184;28;20021;-48
2023/12/09 02:43:03;;;;;;;17.53;3.83;;;7.50;99.90;;;;;;5034505;28;20030;-48
2023/12/09 02:45:29;;;;;;;23.45;4.03;;;7.50;99.90;;;;;;5034393;28;20468;-44
2023/12/09 02:47:55;;;;;;;15.15;3.83;;;7.50;99.90;;;;;;5034242;28;20032;-48
2023/12/09 02:50:21;;;;;;;18.05;3.50;;;7.50;99.90;;;;;;5034031;28;20025;-49
2023/12/09 02:52:46;;;;;;;20.25;4.30;;;7.50;99.90;;;;;;5034310;28;20391;-47
2023/12/09 02:55:12;;;;;;;12.75;3.53;;;7.50;99.90;;;;;;5030342;28;20030;-49
2023/12/09 02:57:38;;;;;;;11.82;4.13;;;7.50;99.90;;;;;;5034054;28;20030;-46
2023/12/09 03:00:05;;;;;;;8.63;3.17;;;7.40;99.90;;;;;;5034435;28;20037;-52
2023/12/09 03:02:31;;;;;;;15.68;2.70;;;7.40;99.90;;;;;;5034330;28;20026;-47
2023/12/09 03:04:58;;;;;;;24.55;4.07;;;7.40;99.90;;;;;;5033512;28;20021;-49
2023/12/09 03:07:24;;;;;;;18.33;3.53;;;7.40;99.90;;;;;;5034227;28;20160;-43
2023/12/09 03:09:50;;;;;;;25.15;4.75;;;7.40;99.90;;;;;;5033999;28;20108;-50
2023/12/09 03:12:16;;;;;;;7.93;3.05;;;7.30;99.90;;;;;;5033683;28;20033;-46
2023/12/09 03:14:42;;;;;;;13.90;3.67;;;7.30;99.90;;;;;;5033865;28;20158;-47
2023/12/09 03:17:09;;;;;;;20.25;4.32;;;7.30;99.90;;;;;;5033610;28;20049;-51
2023/12/09 03:19:35;;;;;;;19.80;4.35;;;7.30;99.90;;;;;;5034060;28;20416;-49
2023/12/09 03:22:00;;;;;;;16.05;3.75;;;7.20;99.90;;;;;;5033847;28;20021;-49
2023/12/09 03:24:26;;;;;;;25.08;4.97;;;7.20;99.90;;;;;;5033686;28;20467;-55
2023/12/09 03:26:53;;;;;;;17.92;4.20;;;7.20;99.90;;;;;;5033701;28;20494;-47
2023/12/09 03:29:19;;;;;;;19.33;3.72;;;7.10;99.90;;;;;;5033498;28;20036;-51
2023/12/09 03:31:45;;;;;;;19.80;4.10;;;7.10;99.90;;;;;;5033895;28;20518;-46
2023/12/09 03:34:12;;;;;;;14.18;3.75;;;7.10;99.90;;;;;;5033589;28;20053;-49
2023/12/09 03:36:38;;;;;;;18.40;4.00;;;7.20;99.90;;;;;;5033440;28;20025;-48
2023/12/09 03:39:04;;;;;;;24.35;4.43;;;7.20;99.90;;;;;;5033370;28;20036;-46
2023/12/09 03:41:29;;;;;;;14.95;3.58;;;7.20;99.90;;;;;;5032172;28;20018;-46
2023/12/09 03:43:55;;;;;;;28.95;4.93;;;7.10;99.90;;;;;;5033556;28;20155;-48
2023/12/09 03:46:21;;;;;;;23.77;4.20;;;7.10;99.90;;;;;;5032360;28;20494;-47
2023/12/09 03:48:47;;;;;;;22.52;3.70;;;7.10;99.90;;;;;;5032809;28;20022;-48
2023/12/09 03:51:13;;;;;;;23.85;3.58;;;7.10;99.90;;;;;;5033349;28;20029;-47
2023/12/09 03:53:41;;;;;;;15.63;3.83;;;7.00;99.90;;;;;;5033382;28;20025;-50
2023/12/09 03:56:07;;;;;;;;;;;7.10;99.90;;;;;;5031982;28;20364;-48
2023/12/09 03:58:33;;;;;;;10.52;3.22;;;7.10;99.90;;;;;;5032732;28;19919;-47
2023/12/09 04:00:58;;;;;;;12.70;3.00;;;7.00;99.90;;;;;;5032656;28;20450;-45
2023/12/09 04:03:24;;;;;;;19.92;3.70;;;7.00;99.90;;;;;;5031436;28;20025;-46
2023/12/09 04:05:50;;;;;;;19.20;4.50;;;7.00;99.90;;;;;;5032215;28;20064;-49
2023/12/09 04:08:15;;;;;;;13.88;4.63;;;7.10;99.90;;;;;;5032898;28;20031;-51
2023/12/09 04:10:41;;;;;;;14.15;3.92;;;7.00;99.90;;;;;;5032620;28;20032;-49
2023/12/09 04:13:07;;;;;;;21.25;4.38;;;7.00;99.90;;;;;;5032714;28;20052;-48
2023/12/09 04:15:32;;;;;;;9.82;3.50;;;7.00;99.90;;;;;;5032138;28;20501;-46
2023/12/09 04:17:58;;;;;;;14.95;4.20;;;7.00;99.90;;;;;;5032687;28;20068;-50
2023/12/09 04:20:24;;;;;;;26.30;4.32;;;7.00;99.90;;;;;;5031263;28;20022;-50
2023/12/09 04:22:49;;;;;;;15.35;5.05;;;7.10;99.90;;;;;;5032567;28;20740;-44
2023/12/09 04:25:15;;;;;;;20.20;4.70;;;7.10;99.90;;;;;;5033052;28;20388;-45
2023/12/09 04:27:41;;;;;;;11.05;3.97;;;7.10;99.90;;;;;;5031696;28;20025;-46
2023/12/09 04:30:07;;;;;;;9.20;3.80;;;7.10;99.90;;;;;;5032368;28;20030;-42
2023/12/09 04:32:32;;;;;;;17.35;4.10;;;7.20;99.90;;;;;;5032636;28;20036;-46
2023/12/09 04:34:59;;;;;;;12.15;3.80;;;7.20;99.90;;;;;;5032581;28;20490;-54
2023/12/09 04:37:25;;;;;;;28.83;4.07;;;7.10;99.90;;;;;;5032551;28;20040;-47
2023/12/09 04:39:51;;;;;;;21.52;4.68;;;7.10;99.90;;;;;;5032590;28;20472;-47
2023/12/09 04:42:18;;;;;;;17.88;4.90;;;7.10;99.90;;;;;;5032640;28;20498;-50
2023/12/09 04:44:44;;;;;;;15.60;4.20;;;7.10;99.90;;;;;;5032251;28;20526;-53
2023/12/09 04:47:09;;;;;;;28.95;4.88;;;7.10;99.90;;;;;;5032401;28;20026;-48
2023/12/09 04:49:35;;;;;;;17.23;4.50;;;7.10;99.90;;;;;;5032145;28;20403;-50
2023/12/09 04:52:01;;;;;;;35.35;5.15;;;7.10;99.90;;;;;;5032426;28;20026;-48
2023/12/09 04:54:26;;;;;;;22.60;4.30;;;7.10;99.90;;;;;;5032304;28;20391;-46
2023/12/09 04:56:52;;;;;;;23.23;5.03;;;7.10;99.90;;;;;;5032327;28;20072;-47
2023/12/09 04:59:18;;;;;;;14.50;4.18;;;7.10;99.90;;;;;;5032445;28;20109;-51
2023/12/09 05:01:43;;;;;;;13.13;3.85;;;7.10;99.90;;;;;;5032551;28;20608;-50
2023/12/09 05:04:09;;;;;;;26.27;5.30;;;7.10;99.90;;;;;;5031477;28;20075;-44
2023/12/09 05:06:35;;;;;;;21.52;4.15;;;7.10;99.90;;;;;;5032118;28;20034;-47
2023/12/09 05:09:00;;;;;;;18.23;4.57;;;7.10;99.90;;;;;;5032353;28;20018;-47
2023/12/09 05:11:26;;;;;;;19.83;4.93;;;7.10;99.90;;;;;;5032221;28;20364;-45
2023/12/09 05:13:52;;;;;;;17.75;4.63;;;7.00;99.90;;;;;;5032644;28;20026;-48
2023/12/09 05:16:17;;;;;;;23.98;5.70;;;7.00;99.90;;;;;;5032784;28;20131;-55
2023/12/09 05:18:43;;;;;;;19.40;3.40;;;7.10;99.90;;;;;;5031819;28;20056;-56
2023/12/09 05:21:12;;;;;;;17.27;4.30;;;7.10;99.90;;;;;;5032160;28;20022;-55
2023/12/09 05:23:39;;;;;;;17.33;5.53;;;7.10;99.90;;;;;;5031288;28;20045;-56
2023/12/09 05:26:05;;;;;;;30.38;4.82;;;7.10;99.90;;;;;;5032100;28;20013;-58
2023/12/09 05:28:30;;;;;;;33.72;3.80;;;7.10;99.90;;;;;;5035779;28;20029;-57
2023/12/09 05:30:57;;;;;;;17.30;4.32;;;7.10;99.90;;;;;;5035904;28;20032;-55
2023/12/09 05:33:22;;;;;;;19.70;3.75;;;7.10;99.90;;;;;;5035761;28;20056;-57
2023/12/09 05:35:48;;;;;;;29.90;4.53;;;7.10;99.90;;;;;;5035390;28;20065;-56
2023/12/09 05:38:14;;;;;;;25.88;4.10;;;7.10;99.90;;;;;;5035756;28;20021;-55
2023/12/09 05:40:40;;;;;;;15.10;4.00;;;7.20;99.90;;;;;;5035998;28;20024;-57
2023/12/09 05:43:05;;;;;;;17.77;4.82;;;7.20;99.90;;;;;;5035613;28;20022;-57
2023/12/09 05:45:31;;;;;;;12.98;4.05;;;7.20;99.90;;;;;;5035414;28;20415;-57
2023/12/09 05:47:57;;;;;;;12.23;3.17;;;7.30;99.90;;;;;;5035056;28;20029;-57
2023/12/09 05:50:22;;;;;;;23.02;4.70;;;7.30;99.90;;;;;;5035112;28;20093;-57
2023/12/09 05:52:48;;;;;;;26.83;4.47;;;7.30;99.90;;;;;;5035666;28;20021;-56
2023/12/09 05:55:17;;;;;;;16.50;3.30;;;7.30;99.90;;;;;;5035375;28;20036;-56
2023/12/09 05:57:43;;;;;;;24.88;3.88;;;7.30;99.90;;;;;;5035310;28;20188;-57
2023/12/09 06:00:10;;;;;;;21.02;3.92;;;7.30;99.90;;;;;;5035550;28;20528;-56
2023/12/09 06:02:36;;;;;;;11.57;3.75;;;7.30;99.90;;;;;;5035056;28;20114;-57
2023/12/09 06:05:02;;;;;;;19.92;3.75;;;7.30;99.90;;;;;;5033219;28;20470;-56
2023/12/09 06:07:28;;;;;;;13.05;4.07;;;7.30;99.90;;;;;;5035219;28;20030;-56
2023/12/09 06:09:54;;;;;;;20.30;4.43;;;7.30;99.90;;;;;;5035168;28;20364;-62
2023/12/09 06:12:20;;;;;;;19.13;4.15;;;7.30;99.90;;;;;;5034755;28;20025;-56
2023/12/09 06:14:46;;;;;;;20.05;4.45;;;7.30;99.90;;;;;;5034799;28;20032;-57
2023/12/09 06:17:11;;;;;;;12.80;3.33;;;7.40;99.90;;;;;;5034686;28;20501;-56
2023/12/09 06:19:37;;;;;;;14.25;4.40;;;7.40;99.90;;;;;;5034735;28;20033;-56
2023/12/09 06:22:03;;;;;;;8.50;3.33;;;7.40;99.90;;;;;;5033577;28;20025;-55
2023/12/09 06:24:29;;;;;;;20.48;4.55;;;7.50;99.90;;;;;;5034683;28;20037;-56
2023/12/09 06:26:55;;;;;;;17.60;3.92;;;7.50;99.90;;;;;;5035046;28;20113;-56
2023/12/09 06:29:20;;;;;;;22.80;4.72;;;7.50;99.90;;;;;;5034678;28;20131;-57
2023/12/09 06:31:46;;;;;;;14.50;4.93;;;7.50;99.90;;;;;;5035000;28;20434;-56
2023/12/09 06:34:11;;;;;;;20.45;4.70;;;7.50;99.90;;;;;;5034700;28;20091;-55
2023/12/09 06:36:37;;;;;;;13.27;4.55;;;7.60;99.90;;;;;;5034246;28;20422;-55
2023/12/09 06:39:03;;;;;;;22.33;5.45;;;7.60;99.90;;;;;;5033775;28;20021;-57
2023/12/09 06:41:29;;;;;;;20.83;5.82;;;7.60;99.90;;;;;;5034587;28;20427;-57
2023/12/09 06:43:54;;;;;;;29.92;6.00;;;7.60;99.90;;;;;;5034511;28;20155;-57
2023/12/09 06:46:20;;;;;;;24.17;4.82;;;7.60;99.90;;;;;;5034078;28;20032;-56
2023/12/09 06:48:46;;;;;;;22.05;6.18;;;7.70;99.90;;;;;;5034566;28;20037;-57
2023/12/09 06:51:15;;;;;;;23.13;4.93;;;7.70;99.90;;;;;;5034231;28;20039;-54
2023/12/09 06:53:42;;;;;;;19.25;5.05;;;7.70;99.90;;;;;;5034497;28;20529;-57
2023/12/09 06:56:08;;;;;;;25.38;5.07;;;7.70;99.90;;;;;;5033707;28;20080;-57
2023/12/09 06:58:35;;;;;;;19.02;5.45;;;7.70;99.90;;;;;;5034044;28;20021;-57
2023/12/09 07:01:01;;;;;;;16.10;4.68;;;7.70;99.90;;;;;;5034389;28;20517;-55
2023/12/09 07:03:27;;;;;;;25.23;5.60;;;7.80;99.90;;;;;;5034286;28;20030;-58
2023/12/09 07:05:52;;;;;;;11.82;5.85;;;7.80;99.90;;;;;;5032658;28;20026;-57
2023/12/09 07:08:18;;;;;;;19.75;5.70;;;7.80;99.90;;;;;;5033647;28;20033;-57
2023/12/09 07:10:46;;;;;;;16.77;4.75;;;7.80;99.90;;;;;;5033536;28;20036;-57
2023/12/09 07:13:11;;;;;;;19.98;5.47;;;7.80;99.90;;;;;;5034261;28;20557;-57
2023/12/09 07:15:37;;;;;;;21.17;4.82;;;7.80;99.90;;;;;;5033933;28;20057;-57
2023/12/09 07:18:04;;;;;;;21.75;5.80;;;7.80;99.90;;;;;;5033391;28;20034;-56
2023/12/09 07:20:30;;;;;;;29.67;5.35;;;7.80;99.90;;;;;;5032836;28;20530;-57
2023/12/09 07:22:55;;;;;;;16.35;5.15;;;7.80;99.90;;;;;;5034052;28;20025;-57
2023/12/09 07:25:23;;;;;;;20.98;4.55;;;7.90;99.90;;;;;;5033727;28;20036;-55
2023/12/09 07:27:50;;;;;;;24.70;4.35;;;7.90;99.90;;;;;;5033661;28;20377;-56
2023/12/09 07:30:16;;;;;;;27.15;6.45;;;8.00;99.90;;;;;;5032188;28;20108;-53
2023/12/09 07:32:42;;;;;;;13.80;4.03;;;8.00;99.90;;;;;;5032456;28;20172;-57
2023/12/09 07:35:08;;;;;;;21.52;5.88;;;8.00;99.90;;;;;;5031579;28;20030;-56
2023/12/09 07:37:34;;;;;;;18.55;3.75;;;8.00;99.90;;;;;;5033132;28;20080;-48
2023/12/09 07:39:59;;;;;;;17.65;4.72;;;8.00;99.90;;;;;;5030411;28;20025;-47
2023/12/09 07:42:25;;;;;;;21.80;4.78;;;8.00;99.90;;;;;;5032224;28;20025;-51
2023/12/09 07:44:53;;;;;;;16.92;4.30;;;8.00;99.90;;;;;;5030717;28;20380;-47
2023/12/09 07:47:19;;;;;;;28.58;4.65;;;8.00;99.90;;;;;;5031077;28;20032;-53
2023/12/09 07:49:44;;;;;;;20.10;4.78;;;8.00;99.90;;;;;;5033335;28;20025;-58
2023/12/09 07:52:10;;;;;;;25.40;4.80;;;8.00;99.90;;;;;;5033098;28;20033;-55
2023/12/09 07:54:35;;;;;;;15.55;4.55;;;8.10;99.90;;;;;;5032993;28;20395;-57
2023/12/09 07:57:02;;;;;;;20.23;4.70;;;8.00;99.90;;;;;;5031919;28;20035;-57
2023/12/09 07:59:27;;;;;;;12.35;4.18;;;8.00;99.90;;;;;;5033118;28;20036;-56
2023/12/09 08:01:53;;;;;;;19.08;4.22;;;8.00;99.90;;;;;;5030613;28;20018;-56
2023/12/09 08:04:18;;;;;;;20.27;5.43;;;8.00;99.90;;;;;;5015203;28;20036;-58
2023/12/09 08:06:44;;;;;;;20.42;4.25;;;8.00;99.90;;;;;;5033113;28;20372;-57
2023/12/09 08:09:10;;;;;;;19.30;4.20;;;8.10;99.90;;;;;;5032948;28;20037;-57
2023/12/09 08:11:36;;;;;;;26.52;4.97;;;8.10;99.90;;;;;;5032618;28;20040;-56
2023/12/09 08:14:01;;;;;;;12.25;4.18;;;8.20;99.90;;;;;;5032888;28;20087;-57
2023/12/09 08:16:27;;;;;;;21.00;4.20;;;8.20;99.90;;;;;;5032790;28;20479;-57
2023/12/09 08:18:53;;;;;;;16.05;3.33;;;8.30;99.90;;;;;;5032444;28;20517;-55
2023/12/09 08:21:19;;;;;;;26.33;3.47;;;8.30;99.90;;;;;;5031959;28;20110;-57
2023/12/09 08:23:45;;;;;;;15.35;4.43;;;8.30;99.90;;;;;;5030023;28;20026;-57
2023/12/09 08:26:18;;;;;;;9.77;3.17;;;8.30;99.90;;;;;;5021246;28;20049;-58
2023/12/09 08:28:43;;;;;;;15.23;2.90;;;8.30;99.90;;;;;;5030258;28;20068;-55
2023/12/09 08:31:09;;;;;;;18.90;2.88;;;8.30;99.90;;;;;;5032633;28;20033;-61
2023/12/09 08:33:34;;;;;;;22.13;3.25;;;8.30;99.90;;;;;;5032571;28;20495;-59
2023/12/09 08:36:00;;;;;;;14.75;3.80;;;8.40;99.90;;;;;;5032483;28;20442;-57
2023/12/09 08:38:26;;;;;;;11.65;2.95;;;8.30;99.90;;;;;;5032841;28;20022;-57
2023/12/09 08:40:53;;;;;;;11.30;2.53;;;8.40;99.90;;;;;;5032559;28;20051;-56
2023/12/09 08:43:18;;;;;;;15.35;3.10;;;8.30;99.90;;;;;;5023915;28;20034;-57
2023/12/09 08:45:44;;;;;;;11.93;2.97;;;8.30;99.90;;;;;;5031474;28;20022;-58
2023/12/09 08:48:09;;;;;;;8.95;2.80;;;8.30;99.90;;;;;;5032476;28;20033;-57
2023/12/09 08:50:35;;;;;;;17.80;2.60;;;8.30;99.90;;;;;;5032410;28;20033;-58
2023/12/09 08:53:02;;;;;;;12.55;2.50;;;8.30;99.90;;;;;;5032453;28;20027;-58
2023/12/09 08:55:28;;;;;;;12.38;2.83;;;8.30;99.90;;;;;;5025434;28;20022;-57
2023/12/09 08:57:53;;;;;;;16.45;3.90;;;8.30;99.90;;;;;;5012688;28;20470;-54
2023/12/09 09:00:20;;;;;;;9.52;2.67;;;8.20;99.90;;;;;;5012756;28;20026;-58
2023/12/09 09:02:47;;;;;;;14.88;2.97;;;8.30;99.90;;;;;;5032837;28;20075;-58
2023/12/09 09:05:13;;;;;;;8.77;2.40;;;8.30;99.90;;;;;;5036376;28;20534;-58
2023/12/09 09:07:40;;;;;;;13.90;2.55;;;8.30;99.90;;;;;;5036544;28;20155;-58
2023/12/09 09:10:07;;;;;;;7.72;1.92;;;8.30;99.90;;;;;;5036340;28;20017;-47
2023/12/09 09:12:33;;;;;;;4.63;2.47;;;8.30;99.90;;;;;;5036380;28;20490;-48
2023/12/09 09:14:59;;;;;;;8.57;2.60;;;8.30;99.90;;;;;;5036172;28;20032;-49
2023/12/09 09:17:24;;;;;;;11.75;3.25;;;8.40;99.90;;;;;;5035858;28;20506;-54
2023/12/09 09:19:51;;;;;;;9.55;2.72;;;8.40;99.90;;;;;;5036017;28;20022;-60
2023/12/09 09:22:17;;;;;;;11.57;2.90;;;8.40;99.90;;;;;;5034668;28;20543;-50
2023/12/09 09:24:42;;;;;;;19.83;3.67;;;8.40;99.90;;;;;;5036208;28;20097;-48
2023/12/09 09:27:08;;;;;;;12.70;2.35;;;8.40;99.90;;;;;;5036061;28;20029;-46
2023/12/09 09:29:34;;;;;;;10.30;2.30;;;8.40;99.90;;;;;;5035993;28;20032;-47
2023/12/09 09:31:59;;;;;;;15.07;2.90;;;8.40;99.90;;;;;;5035805;28;20096;-50
2023/12/09 09:34:25;;;;;;;15.60;2.80;;;8.40;99.90;;;;;;5035743;28;20540;-48
2023/12/09 09:36:51;;;;;;;14.68;2.88;;;8.40;99.90;;;;;;5034218;28;20030;-47
2023/12/09 09:39:17;;;;;;;8.48;2.10;;;8.40;99.90;;;;;;5035736;28;20072;-48
2023/12/09 09:42:12;;;;;;;11.82;2.53;;;8.50;99.90;;;;;;5035953;28;20123;-51
2023/12/09 09:44:43;;;;;;;17.42;2.85;;;8.50;99.90;;;;;;5035819;28;20463;-47
2023/12/09 09:47:10;;;;;;;5.80;2.00;;;8.50;99.90;;;;;;5035661;28;20025;-46
2023/12/09 09:49:38;;;;;;;13.00;2.55;;;8.50;99.90;;;;;;5035618;28;20545;-48
2023/12/09 09:52:09;;;;;;;13.80;2.97;;;8.60;99.90;;;;;;5035644;28;20498;-48
2023/12/09 09:54:35;;;;;;;11.85;2.53;;;8.70;99.90;;;;;;5035502;28;20029;-49
2023/12/09 09:57:03;;;;;;;7.18;2.47;;;8.70;99.90;;;;;;5015564;28;20022;-50
2023/12/09 09:59:30;;;;;;;16.08;2.60;;;8.70;99.90;;;;;;5015474;28;20022;-46
2023/12/09 10:01:56;;;;;;;10.43;2.07;;;8.80;99.90;;;;;;5015551;28;20464;-43
2023/12/09 10:04:22;;;;;;;7.30;2.25;;;8.80;99.90;;;;;;5015542;28;20105;-49
2023/12/09 10:06:49;;;;;;;8.52;1.92;;;8.80;99.90;;;;;;5015744;28;20030;-44
2023/12/09 10:09:14;;;;;;;12.88;2.70;;;8.90;99.90;;;;;;5020326;28;20426;-57
2023/12/09 10:11:40;;;;;;;8.40;2.30;;;8.90;99.90;;;;;;5035105;28;20079;-54
2023/12/09 10:14:06;;;;;;;6.35;1.65;;;8.90;99.90;;;;;;5033856;28;20554;-57
2023/12/09 10:16:33;;;;;;;11.63;1.88;;;8.90;99.90;;;;;;5034967;28;20540;-49
2023/12/09 10:18:59;;;;;;;4.90;1.63;;;9.00;99.90;;;;;;5034877;28;20148;-46
2023/12/09 10:21:25;;;;;;;8.25;2.13;;;9.10;99.90;;;;;;5035022;28;20396;-45
2023/12/09 10:23:51;;;;;;;18.42;2.00;;;9.10;99.90;;;;;;5034797;28;20021;-43
2023/12/09 10:26:17;;;;;;;7.85;2.08;;;9.20;99.90;;;;;;5034670;28;20030;-51
2023/12/09 10:28:44;;;;;;;12.18;2.38;;;9.20;99.90;;;;;;5034800;28;20024;-50
2023/12/09 10:31:10;;;;;;;7.43;1.60;;;9.20;99.90;;;;;;5034928;28;20105;-42
2023/12/09 10:33:36;;;;;;;9.15;2.00;;;9.20;99.90;;;;;;5034677;28;20105;-57
2023/12/09 10:36:02;;;;;;;10.88;2.60;;;9.30;99.90;;;;;;5034580;28;20112;-57
2023/12/09 10:38:28;;;;;;;12.18;1.95;;;9.30;99.90;;;;;;5034764;28;20534;-57
2023/12/09 10:40:54;;;;;;;6.20;2.00;;;9.30;99.90;;;;;;5034856;28;20093;-56
2023/12/09 10:43:24;;;;;;;8.30;1.98;;;9.40;99.90;;;;;;5034377;28;20024;-57
2023/12/09 10:45:49;;;;;;;4.20;1.60;;;9.40;99.90;;;;;;5034521;28;20025;-58
2023/12/09 10:48:15;;;;;;;12.02;2.33;;;9.40;99.90;;;;;;5034408;28;20075;-57
2023/12/09 10:50:44;;;;;;;5.30;2.58;;;9.40;99.90;;;;;;5033194;28;20443;-55
2023/12/09 10:53:10;;;;;;;6.78;1.60;;;9.40;99.90;;;;;;5032903;28;20021;-55
2023/12/09 10:55:36;;;;;;;20.20;1.98;;;9.50;99.90;;;;;;5034484;28;20029;-57
2023/12/09 10:58:05;;;;;;;4.63;1.30;;;9.50;99.90;;;;;;5032869;28;20029;-56
2023/12/09 11:00:32;;;;;;;4.25;1.35;;;9.50;99.90;;;;;;5034068;28;20018;-57
2023/12/09 11:02:58;;;;;;;15.05;1.63;;;9.50;99.90;;;;;;5034197;28;20025;-57
2023/12/09 11:05:25;;;;;;;15.95;1.92;;;9.50;99.90;;;;;;5034162;28;20021;-57
2023/12/09 11:07:52;;;;;;;16.55;2.05;;;9.50;99.90;;;;;;5034082;28;20441;-57
2023/12/09 11:10:19;;;;;;;17.13;1.52;;;9.50;99.90;;;;;;5034311;28;20028;-58
2023/12/09 11:12:47;;;;;;;17.48;1.83;;;9.50;99.90;;;;;;5033934;28;20441;-56
2023/12/09 11:15:12;;;;;;;11.90;2.00;;;9.40;99.90;;;;;;5033934;28;20025;-57
2023/12/09 11:17:40;;;;;;;10.88;1.20;;;9.40;99.90;;;;;;5032233;28;20049;-57
2023/12/09 11:20:13;;;;;;;4.57;1.33;;;9.40;99.90;;;;;;5034107;28;20490;-57
2023/12/09 11:22:40;;;;;;;5.63;1.33;;;9.40;99.90;;;;;;5033707;28;20510;-58
2023/12/09 11:25:08;;;;;;;5.15;1.13;;;9.50;99.90;;;;;;5033403;28;20018;-53
2023/12/09 11:27:36;;;;;;;8.98;1.42;;;9.50;99.90;;;;;;5033653;28;20033;-56
2023/12/09 11:30:02;;;;;;;9.43;1.20;;;9.60;99.90;;;;;;5033626;28;20112;-56
2023/12/09 11:32:29;;;;;;;3.60;0.93;;;9.50;99.90;;;;;;5033537;28;20037;-58
2023/12/09 11:34:56;;;;;;;3.58;1.45;;;9.50;99.90;;;;;;5033715;28;20494;-57
2023/12/09 11:37:23;;;;;;;10.73;1.75;;;9.50;99.90;;;;;;5033693;28;20036;-58
2023/12/09 11:39:49;;;;;;;9.38;1.58;;;9.50;99.90;;;;;;5033765;28;20026;-57
2023/12/09 11:42:15;;;;;;;4.18;1.30;;;9.50;99.90;;;;;;5033476;28;20018;-57
2023/12/09 11:44:42;;;;;;;5.90;1.27;;;9.50;99.90;;;;;;5033368;28;20391;-57
2023/12/09 11:47:08;;;;;;;8.32;1.30;;;9.50;99.90;;;;;;5033351;28;20021;-57
2023/12/09 11:49:35;;;;;;;7.47;1.13;;;9.50;99.90;;;;;;5033270;28;20399;-56
2023/12/09 11:52:01;;;;;;;7.32;1.05;;;9.50;99.90;;;;;;5033132;28;20021;-54
2023/12/09 11:54:26;;;;;;;8.20;2.05;;;9.40;99.90;;;;;;5033174;28;20048;-57
2023/12/09 11:56:52;;;;;;;6.47;1.58;;;9.30;99.90;;;;;;5031773;28;20025;-58
2023/12/09 11:59:18;;;;;;;8.98;1.00;;;9.20;99.90;;;;;;5033111;28;20022;-55
2023/12/09 12:01:43;;;;;;;3.03;1.48;;;9.20;99.90;;;;;;5033104;28;20091;-53
2023/12/09 12:04:09;;;;;;;7.35;1.27;;;9.20;99.90;;;;;;5032991;28;20025;-55
2023/12/09 12:06:36;;;;;;;2.53;1.10;;;9.10;99.90;;;;;;5033000;28;20501;-58
2023/12/09 12:09:03;;;;;;;3.72;0.80;;;9.00;99.90;;;;;;5032851;28;20033;-57
2023/12/09 12:11:28;;;;;;;3.10;1.25;;;9.00;99.90;;;;;;5032890;28;20036;-58
2023/12/09 12:13:55;;;;;;;10.98;1.52;;;9.00;99.90;;;;;;5031494;28;20483;-56
2023/12/09 12:16:21;;;;;;;7.57;1.77;;;9.00;99.90;;;;;;5033176;28;20475;-55
2023/12/09 12:18:50;;;;;;;4.13;1.00;;;8.90;99.90;;;;;;5034047;28;20514;-60
2023/12/09 12:21:16;;;;;;;3.50;0.88;;;8.90;99.90;;;;;;5035859;28;20070;-57
2023/12/09 12:23:42;;;;;;;11.95;1.65;;;9.00;99.90;;;;;;5032674;28;20398;-57
2023/12/09 12:26:09;;;;;;;4.60;0.82;;;8.90;99.90;;;;;;5032609;28;20025;-57
2023/12/09 12:28:35;;;;;;;2.67;1.20;;;8.90;99.90;;;;;;5032721;28;20033;-56
2023/12/09 12:31:01;;;;;;;8.05;0.68;;;8.90;99.90;;;;;;5032674;28;20041;-54
2023/12/09 12:33:31;;;;;;;3.47;1.00;;;8.90;99.90;;;;;;5031457;28;20029;-55
2023/12/09 12:35:58;;;;;;;3.72;0.80;;;8.90;99.90;;;;;;5031993;28;20513;-54
2023/12/09 12:38:25;;;;;;;6.57;1.10;;;8.90;99.90;;;;;;5032577;28;20065;-52
2023/12/09 12:40:52;;;;;;;3.43;0.40;;;8.80;99.90;;;;;;5032664;28;20036;-55
2023/12/09 12:43:19;;;;;;;4.15;0.90;;;8.80;99.90;;;;;;5032530;28;20029;-56
2023/12/09 12:45:50;;;;;;;2.47;0.63;;;8.70;99.90;;;;;;5032650;28;20021;-55